sensor_id;sensor_type;location;lat;lon;timestamp;pressure;altitude;pressure_sealevel;temperature;humidity
10718;BME280;13513;42.700;23.124;2023-04-02T00:06:33;92071.59;;;6.74;98.88
10718;BME280;13513;42.700;23.124;2023-04-02T00:09:22;92074.16;;;6.69;98.84
10718;BME280;13513;42.700;23.124;2023-04-02T00:11:50;92069.88;;;6.63;99.43
10718;BME280;13513;42.700;23.124;2023-04-02T00:14:26;92070.70;;;6.66;100.00
10718;BME280;13513;42.700;23.124;2023-04-02T00:16:58;92073.33;;;6.66;100.00
10718;BME280;13513;42.700;23.124;2023-04-02T00:19:37;92073.33;;;6.66;100.00
10718;BME280;13513;42.700;23.124;2023-04-02T00:22:08;92067.34;;;6.68;99.94
10718;BME280;13513;42.700;23.124;2023-04-02T00:24:39;92063.42;;;6.70;99.93
10718;BME280;13513;42.700;23.124;2023-04-02T00:27:12;92053.73;;;6.71;99.95
10718;BME280;13513;42.700;23.124;2023-04-02T00:29:51;92060.32;;;6.73;99.40
10718;BME280;13513;42.700;23.124;2023-04-02T00:32:24;92055.63;;;6.78;98.48
10718;BME280;13513;42.700;23.124;2023-04-02T00:34:55;92055.36;;;6.77;97.54
10718;BME280;13513;42.700;23.124;2023-04-02T00:37:29;92054.21;;;6.89;96.02
10718;BME280;13513;42.700;23.124;2023-04-02T00:40:06;92047.74;;;6.99;94.29
10718;BME280;13513;42.700;23.124;2023-04-02T00:42:37;92044.19;;;7.10;92.80
10718;BME280;13513;42.700;23.124;2023-04-02T00:45:16;92051.85;;;7.14;91.93
10718;BME280;13513;42.700;23.124;2023-04-02T00:47:42;92045.38;;;7.22;91.59
10718;BME280;13513;42.700;23.124;2023-04-02T00:50:21;92042.05;;;7.29;89.89
10718;BME280;13513;42.700;23.124;2023-04-02T00:52:52;92044.24;;;7.39;88.86
10718;BME280;13513;42.700;23.124;2023-04-02T00:55:31;92044.28;;;7.44;88.74
10718;BME280;13513;42.700;23.124;2023-04-02T00:58:00;92041.88;;;7.40;88.65
10718;BME280;13513;42.700;23.124;2023-04-02T01:00:34;92037.13;;;7.40;88.65
10718;BME280;13513;42.700;23.124;2023-04-02T01:05:58;92035.40;;;7.48;87.36
10718;BME280;13513;42.700;23.124;2023-04-02T01:08:39;92033.47;;;7.38;88.79
10718;BME280;13513;42.700;23.124;2023-04-02T01:16:42;92040.42;;;7.52;86.82
10718;BME280;13513;42.700;23.124;2023-04-02T01:22:04;92059.65;;;7.31;89.04
10718;BME280;13513;42.700;23.124;2023-04-02T01:24:32;92056.95;;;7.23;90.11
10718;BME280;13513;42.700;23.124;2023-04-02T01:27:07;92049.80;;;7.19;88.75
10718;BME280;13513;42.700;23.124;2023-04-02T01:29:53;92052.03;;;7.32;87.15
10718;BME280;13513;42.700;23.124;2023-04-02T01:32:25;92048.67;;;7.36;86.85
10718;BME280;13513;42.700;23.124;2023-04-02T01:34:58;92062.08;;;7.37;87.15
10718;BME280;13513;42.700;23.124;2023-04-02T01:37:35;92059.42;;;7.35;87.20
10718;BME280;13513;42.700;23.124;2023-04-02T01:45:37;92055.48;;;7.35;87.85
10718;BME280;13513;42.700;23.124;2023-04-02T01:48:22;92049.63;;;7.28;87.99
10718;BME280;13513;42.700;23.124;2023-04-02T01:50:50;92045.64;;;7.23;88.60
10718;BME280;13513;42.700;23.124;2023-04-02T01:53:26;92043.52;;;7.22;87.09
10718;BME280;13513;42.700;23.124;2023-04-02T01:56:01;92053.10;;;7.33;87.46
10718;BME280;13513;42.700;23.124;2023-04-02T01:58:34;92047.62;;;7.37;87.07
10718;BME280;13513;42.700;23.124;2023-04-02T02:01:11;92051.16;;;7.48;85.09
10718;BME280;13513;42.700;23.124;2023-04-02T02:03:42;92054.41;;;7.57;84.38
10718;BME280;13513;42.700;23.124;2023-04-02T02:06:16;92053.05;;;7.55;84.71
10718;BME280;13513;42.700;23.124;2023-04-02T02:08:53;92052.18;;;7.47;85.70
10718;BME280;13513;42.700;23.124;2023-04-02T02:11:28;92057.28;;;7.56;83.29
10718;BME280;13513;42.700;23.124;2023-04-02T02:14:11;92056.48;;;7.55;84.91
10718;BME280;13513;42.700;23.124;2023-04-02T02:16:40;92060.36;;;7.48;85.73
10718;BME280;13513;42.700;23.124;2023-04-02T02:19:27;92058.98;;;7.43;84.76
10718;BME280;13513;42.700;23.124;2023-04-02T02:24:47;92057.09;;;7.65;81.59
10718;BME280;13513;42.700;23.124;2023-04-02T02:30:01;92055.60;;;7.76;80.44
10718;BME280;13513;42.700;23.124;2023-04-02T02:32:31;92053.74;;;7.72;79.76
10718;BME280;13513;42.700;23.124;2023-04-02T02:35:09;92058.05;;;7.83;78.44
10718;BME280;13513;42.700;23.124;2023-04-02T02:37:39;92054.14;;;7.88;78.33
10718;BME280;13513;42.700;23.124;2023-04-02T02:40:21;92045.69;;;7.86;77.68
10718;BME280;13513;42.700;23.124;2023-04-02T02:42:53;92047.81;;;7.86;78.85
10718;BME280;13513;42.700;23.124;2023-04-02T02:45:30;92052.33;;;7.91;78.21
10718;BME280;13513;42.700;23.124;2023-04-02T02:47:57;92043.86;;;7.86;79.62
10718;BME280;13513;42.700;23.124;2023-04-02T02:50:30;92049.13;;;7.86;77.84
10718;BME280;13513;42.700;23.124;2023-04-02T02:53:03;92048.27;;;7.78;78.67
10718;BME280;13513;42.700;23.124;2023-04-02T02:55:36;92051.72;;;7.81;79.89
10718;BME280;13513;42.700;23.124;2023-04-02T02:58:09;92052.69;;;7.73;82.06
10718;BME280;13513;42.700;23.124;2023-04-02T03:00:40;92052.91;;;7.66;81.95
10718;BME280;13513;42.700;23.124;2023-04-02T03:03:16;92057.11;;;7.67;80.94
10718;BME280;13513;42.700;23.124;2023-04-02T03:05:55;92052.69;;;7.73;79.99
10718;BME280;13513;42.700;23.124;2023-04-02T03:08:26;92056.39;;;7.74;78.74
10718;BME280;13513;42.700;23.124;2023-04-02T03:11:15;92056.42;;;7.79;77.62
10718;BME280;13513;42.700;23.124;2023-04-02T03:13:45;92057.02;;;7.86;76.77
10718;BME280;13513;42.700;23.124;2023-04-02T03:16:33;92057.03;;;7.89;76.76
10718;BME280;13513;42.700;23.124;2023-04-02T03:21:58;92062.48;;;7.80;78.83
10718;BME280;13513;42.700;23.124;2023-04-02T03:27:37;92057.13;;;7.70;79.76
10718;BME280;13513;42.700;23.124;2023-04-02T03:30:29;92057.05;;;7.60;81.09
10718;BME280;13513;42.700;23.124;2023-04-02T03:33:05;92059.47;;;7.40;82.16
10718;BME280;13513;42.700;23.124;2023-04-02T03:35:43;92058.60;;;7.32;82.56
10718;BME280;13513;42.700;23.124;2023-04-02T03:38:19;92063.02;;;7.50;78.73
10718;BME280;13513;42.700;23.124;2023-04-02T03:41:10;92061.49;;;7.57;78.44
10718;BME280;13513;42.700;23.124;2023-04-02T03:43:38;92066.03;;;7.64;78.17
10718;BME280;13513;42.700;23.124;2023-04-02T03:54:28;92062.06;;;7.61;77.67
10718;BME280;13513;42.700;23.124;2023-04-02T03:56:59;92065.09;;;7.51;79.03
10718;BME280;13513;42.700;23.124;2023-04-02T03:59:43;92065.99;;;7.35;81.49
10718;BME280;13513;42.700;23.124;2023-04-02T04:02:26;92057.51;;;6.80;86.33
10718;BME280;13513;42.700;23.124;2023-04-02T04:04:47;92062.49;;;6.38;90.13
10718;BME280;13513;42.700;23.124;2023-04-02T04:07:28;91997.99;;;5.69;93.21
10718;BME280;13513;42.700;23.124;2023-04-02T04:09:59;92065.02;;;6.14;91.56
10718;BME280;13513;42.700;23.124;2023-04-02T04:12:41;92077.27;;;6.28;89.45
10718;BME280;13513;42.700;23.124;2023-04-02T04:15:22;92071.47;;;6.07;92.98
10718;BME280;13513;42.700;23.124;2023-04-02T04:18:14;92072.84;;;5.79;95.59
10718;BME280;13513;42.700;23.124;2023-04-02T04:20:46;92079.30;;;6.04;92.79
10718;BME280;13513;42.700;23.124;2023-04-02T04:23:19;92079.13;;;6.46;87.90
10718;BME280;13513;42.700;23.124;2023-04-02T04:25:55;92078.96;;;6.74;85.41
10718;BME280;13513;42.700;23.124;2023-04-02T04:28:25;92079.58;;;7.03;82.85
10718;BME280;13513;42.700;23.124;2023-04-02T04:31:11;92082.08;;;7.17;81.49
10718;BME280;13513;42.700;23.124;2023-04-02T04:33:40;92082.45;;;7.25;80.86
10718;BME280;13513;42.700;23.124;2023-04-02T04:36:17;92086.73;;;7.31;80.18
10718;BME280;13513;42.700;23.124;2023-04-02T04:38:48;92089.11;;;7.33;79.40
10718;BME280;13513;42.700;23.124;2023-04-02T04:41:22;92086.68;;;7.53;77.68
10718;BME280;13513;42.700;23.124;2023-04-02T04:43:57;92090.22;;;7.66;75.66
10718;BME280;13513;42.700;23.124;2023-04-02T04:46:31;92089.16;;;7.93;74.23
10718;BME280;13513;42.700;23.124;2023-04-02T04:49:11;92085.77;;;8.27;72.18
10718;BME280;13513;42.700;23.124;2023-04-02T04:51:53;92091.52;;;8.63;69.85
10718;BME280;13513;42.700;23.124;2023-04-02T04:54:19;92092.51;;;8.99;66.93
10718;BME280;13513;42.700;23.124;2023-04-02T04:56:54;92089.95;;;9.21;65.37
10718;BME280;13513;42.700;23.124;2023-04-02T04:59:28;92089.20;;;9.28;64.24
10718;BME280;13513;42.700;23.124;2023-04-02T05:02:04;92091.37;;;9.39;62.64
10718;BME280;13513;42.700;23.124;2023-04-02T05:04:38;92086.61;;;9.43;61.44
10718;BME280;13513;42.700;23.124;2023-04-02T05:07:12;92092.19;;;9.52;62.57
10718;BME280;13513;42.700;23.124;2023-04-02T05:09:56;92089.33;;;9.76;60.47
10718;BME280;13513;42.700;23.124;2023-04-02T05:12:42;92086.72;;;9.96;59.18
10718;BME280;13513;42.700;23.124;2023-04-02T05:15:42;92095.47;;;10.34;56.98
10718;BME280;13513;42.700;23.124;2023-04-02T05:21:13;92092.84;;;10.56;53.80
10718;BME280;13513;42.700;23.124;2023-04-02T05:23:44;92094.41;;;10.45;54.38
10718;BME280;13513;42.700;23.124;2023-04-02T05:26:21;92099.70;;;10.30;54.79
10718;BME280;13513;42.700;23.124;2023-04-02T05:28:53;92104.14;;;10.77;54.75
10718;BME280;13513;42.700;23.124;2023-04-02T05:31:27;92103.30;;;11.01;56.32
10718;BME280;13513;42.700;23.124;2023-04-02T05:33:58;92101.47;;;10.92;59.58
10718;BME280;13513;42.700;23.124;2023-04-02T05:36:30;92103.06;;;10.88;59.25
10718;BME280;13513;42.700;23.124;2023-04-02T05:39:01;92098.22;;;11.25;61.65
10718;BME280;13513;42.700;23.124;2023-04-02T05:41:37;92097.97;;;11.82;58.95
10718;BME280;13513;42.700;23.124;2023-04-02T05:46:50;92104.97;;;12.77;51.26
10718;BME280;13513;42.700;23.124;2023-04-02T05:49:26;92113.47;;;12.74;49.03
10718;BME280;13513;42.700;23.124;2023-04-02T05:51:57;92106.27;;;12.48;48.20
10718;BME280;13513;42.700;23.124;2023-04-02T05:54:45;92110.27;;;12.46;50.85
10718;BME280;13513;42.700;23.124;2023-04-02T05:57:23;92118.00;;;12.37;49.41
10718;BME280;13513;42.700;23.124;2023-04-02T05:59:50;92117.81;;;12.26;49.77
10718;BME280;13513;42.700;23.124;2023-04-02T06:02:40;92124.22;;;12.17;48.40
10718;BME280;13513;42.700;23.124;2023-04-02T06:05:16;92122.76;;;12.40;49.70
10718;BME280;13513;42.700;23.124;2023-04-02T06:08:04;92120.59;;;12.78;47.77
10718;BME280;13513;42.700;23.124;2023-04-02T06:10:36;92122.86;;;12.90;47.93
10718;BME280;13513;42.700;23.124;2023-04-02T06:13:09;92113.77;;;13.50;48.92
10718;BME280;13513;42.700;23.124;2023-04-02T06:15:40;92120.48;;;13.87;45.85
10718;BME280;13513;42.700;23.124;2023-04-02T06:18:29;92121.77;;;14.11;45.90
10718;BME280;13513;42.700;23.124;2023-04-02T06:20:58;92117.73;;;14.34;44.35
10718;BME280;13513;42.700;23.124;2023-04-02T06:23:44;92115.50;;;14.20;43.75
10718;BME280;13513;42.700;23.124;2023-04-02T06:26:28;92120.28;;;13.81;43.24
10718;BME280;13513;42.700;23.124;2023-04-02T06:29:11;92117.48;;;14.12;44.41
10718;BME280;13513;42.700;23.124;2023-04-02T06:31:43;92115.13;;;14.98;45.37
10718;BME280;13513;42.700;23.124;2023-04-02T06:34:16;92119.97;;;15.69;43.23
10718;BME280;13513;42.700;23.124;2023-04-02T06:36:48;92115.86;;;15.47;40.92
10718;BME280;13513;42.700;23.124;2023-04-02T06:39:23;92114.08;;;16.21;43.48
10718;BME280;13513;42.700;23.124;2023-04-02T06:44:37;92121.86;;;17.33;38.17
10718;BME280;13513;42.700;23.124;2023-04-02T06:47:21;92124.77;;;17.23;39.61
10718;BME280;13513;42.700;23.124;2023-04-02T06:49:56;92131.02;;;17.29;38.52
10718;BME280;13513;42.700;23.124;2023-04-02T06:52:36;92127.41;;;17.75;38.25
10718;BME280;13513;42.700;23.124;2023-04-02T06:57:51;92129.22;;;19.12;37.63
10718;BME280;13513;42.700;23.124;2023-04-02T07:00:29;92129.73;;;19.46;37.52
10718;BME280;13513;42.700;23.124;2023-04-02T07:02:58;92133.61;;;20.12;34.73
10718;BME280;13513;42.700;23.124;2023-04-02T07:05:29;92133.27;;;20.51;35.08
10718;BME280;13513;42.700;23.124;2023-04-02T07:08:00;92141.17;;;19.95;33.46
10718;BME280;13513;42.700;23.124;2023-04-02T07:10:31;92135.44;;;18.59;35.33
10718;BME280;13513;42.700;23.124;2023-04-02T07:13:02;92141.55;;;17.95;35.00
10718;BME280;13513;42.700;23.124;2023-04-02T07:15:33;92136.61;;;18.64;38.09
10718;BME280;13513;42.700;23.124;2023-04-02T07:18:04;92142.66;;;19.18;36.67
10718;BME280;13513;42.700;23.124;2023-04-02T07:20:36;92139.16;;;19.52;35.72
10718;BME280;13513;42.700;23.124;2023-04-02T07:23:07;92149.64;;;20.06;34.38
10718;BME280;13513;42.700;23.124;2023-04-02T07:25:38;92142.98;;;20.70;33.64
10718;BME280;13513;42.700;23.124;2023-04-02T07:28:09;92150.87;;;21.16;34.06
10718;BME280;13513;42.700;23.124;2023-04-02T07:30:40;92152.14;;;21.83;32.12
10718;BME280;13513;42.700;23.124;2023-04-02T07:33:15;92150.31;;;22.44;32.26
10718;BME280;13513;42.700;23.124;2023-04-02T07:35:45;92153.58;;;22.55;30.71
10718;BME280;13513;42.700;23.124;2023-04-02T07:38:16;92162.42;;;22.38;32.64
10718;BME280;13513;42.700;23.124;2023-04-02T07:40:46;92161.54;;;22.76;30.80
10718;BME280;13513;42.700;23.124;2023-04-02T07:43:16;92156.52;;;23.26;29.35
10718;BME280;13513;42.700;23.124;2023-04-02T07:45:46;92127.37;;;22.92;30.73
10718;BME280;13513;42.700;23.124;2023-04-02T07:48:20;92158.37;;;22.98;30.45
10718;BME280;13513;42.700;23.124;2023-04-02T07:50:51;92168.52;;;22.59;30.67
10718;BME280;13513;42.700;23.124;2023-04-02T07:53:34;92171.17;;;22.17;30.31
10718;BME280;13513;42.700;23.124;2023-04-02T07:56:05;92176.17;;;21.15;32.35
10718;BME280;13513;42.700;23.124;2023-04-02T07:58:35;92175.91;;;21.28;34.38
10718;BME280;13513;42.700;23.124;2023-04-02T08:01:13;92173.78;;;20.72;34.10
10718;BME280;13513;42.700;23.124;2023-04-02T08:03:39;92170.16;;;20.83;33.44
10718;BME280;13513;42.700;23.124;2023-04-02T08:06:18;92174.11;;;20.27;31.55
10718;BME280;13513;42.700;23.124;2023-04-02T08:08:50;92173.84;;;20.49;33.48
10718;BME280;13513;42.700;23.124;2023-04-02T08:11:20;92184.77;;;21.08;33.29
10718;BME280;13513;42.700;23.124;2023-04-02T08:13:51;92178.27;;;21.89;30.96
10718;BME280;13513;42.700;23.124;2023-04-02T08:16:22;92181.08;;;22.49;31.17
10718;BME280;13513;42.700;23.124;2023-04-02T08:18:53;92175.56;;;22.81;31.13
10718;BME280;13513;42.700;23.124;2023-04-02T08:21:24;92183.37;;;22.08;32.86
10718;BME280;13513;42.700;23.124;2023-04-02T08:23:55;92188.20;;;23.29;28.53
10718;BME280;13513;42.700;23.124;2023-04-02T08:26:27;92183.52;;;23.54;30.21
10718;BME280;13513;42.700;23.124;2023-04-02T08:28:58;92182.93;;;23.54;29.62
10718;BME280;13513;42.700;23.124;2023-04-02T08:31:30;92181.77;;;23.34;31.18
10718;BME280;13513;42.700;23.124;2023-04-02T08:34:01;92189.87;;;24.47;27.88
10718;BME280;13513;42.700;23.124;2023-04-02T08:36:37;92184.80;;;25.42;28.41
10718;BME280;13513;42.700;23.124;2023-04-02T08:39:08;92188.57;;;25.57;28.50
10718;BME280;13513;42.700;23.124;2023-04-02T08:44:59;92185.78;;;26.75;24.40
10718;BME280;13513;42.700;23.124;2023-04-02T08:47:26;92182.34;;;27.26;24.03
10718;BME280;13513;42.700;23.124;2023-04-02T08:50:00;92193.44;;;26.69;26.35
10718;BME280;13513;42.700;23.124;2023-04-02T08:52:33;92192.91;;;26.60;25.22
10718;BME280;13513;42.700;23.124;2023-04-02T08:55:09;92192.73;;;25.98;27.76
10718;BME280;13513;42.700;23.124;2023-04-02T09:00:40;92185.86;;;26.91;26.12
10718;BME280;13513;42.700;23.124;2023-04-02T09:03:17;92193.61;;;26.25;25.53
10718;BME280;13513;42.700;23.124;2023-04-02T09:05:46;92195.54;;;24.42;25.94
10718;BME280;13513;42.700;23.124;2023-04-02T09:08:28;92199.27;;;21.95;28.07
10718;BME280;13513;42.700;23.124;2023-04-02T09:11:12;92202.81;;;20.12;33.35
10718;BME280;13513;42.700;23.124;2023-04-02T09:13:44;92199.00;;;19.50;35.07
10718;BME280;13513;42.700;23.124;2023-04-02T09:16:18;92187.29;;;19.72;35.28
10718;BME280;13513;42.700;23.124;2023-04-02T09:18:52;92194.75;;;20.04;35.39
10718;BME280;13513;42.700;23.124;2023-04-02T09:21:37;92190.42;;;19.73;33.09
10718;BME280;13513;42.700;23.124;2023-04-02T09:24:10;92184.77;;;21.29;33.64
10718;BME280;13513;42.700;23.124;2023-04-02T09:26:39;92186.41;;;24.78;30.02
10718;BME280;13513;42.700;23.124;2023-04-02T09:34:48;92173.00;;;27.24;23.56
10718;BME280;13513;42.700;23.124;2023-04-02T09:37:23;92179.34;;;24.89;25.23
10718;BME280;13513;42.700;23.124;2023-04-02T09:40:07;92179.17;;;21.87;29.81
10718;BME280;13513;42.700;23.124;2023-04-02T09:42:30;92185.11;;;20.63;30.87
10718;BME280;13513;42.700;23.124;2023-04-02T09:47:44;92180.15;;;19.61;34.56
10718;BME280;13513;42.700;23.124;2023-04-02T09:52:50;92164.02;;;24.87;27.62
10718;BME280;13513;42.700;23.124;2023-04-02T09:55:27;92156.27;;;27.48;24.90
10718;BME280;13513;42.700;23.124;2023-04-02T09:58:15;92166.49;;;26.12;26.98
10718;BME280;13513;42.700;23.124;2023-04-02T10:00:50;92165.41;;;24.40;26.26
10718;BME280;13513;42.700;23.124;2023-04-02T10:03:26;92161.75;;;22.29;31.64
10718;BME280;13513;42.700;23.124;2023-04-02T10:06:11;92168.84;;;21.50;32.85
10718;BME280;13513;42.700;23.124;2023-04-02T10:08:42;92165.45;;;21.41;33.69
10718;BME280;13513;42.700;23.124;2023-04-02T10:11:18;92159.20;;;21.49;32.66
10718;BME280;13513;42.700;23.124;2023-04-02T10:16:43;92152.20;;;20.60;35.54
10718;BME280;13513;42.700;23.124;2023-04-02T10:19:14;92154.13;;;20.45;35.13
10718;BME280;13513;42.700;23.124;2023-04-02T10:21:44;92157.58;;;20.46;35.06
10718;BME280;13513;42.700;23.124;2023-04-02T10:24:18;92159.22;;;20.01;33.73
10718;BME280;13513;42.700;23.124;2023-04-02T10:27:47;92152.53;;;19.69;36.81
10718;BME280;13513;42.700;23.124;2023-04-02T10:32:54;92144.59;;;19.90;34.30
10718;BME280;13513;42.700;23.124;2023-04-02T10:35:51;92150.63;;;19.69;33.78
10718;BME280;13513;42.700;23.124;2023-04-02T10:38:36;92151.44;;;19.30;33.16
10718;BME280;13513;42.700;23.124;2023-04-02T10:41:17;92152.83;;;19.02;38.84
10718;BME280;13513;42.700;23.124;2023-04-02T10:46:49;92161.22;;;19.26;34.53
10718;BME280;13513;42.700;23.124;2023-04-02T10:52:07;92153.30;;;19.93;36.03
10718;BME280;13513;42.700;23.124;2023-04-02T10:54:42;92146.85;;;20.46;34.84
10718;BME280;13513;42.700;23.124;2023-04-02T10:59:54;92142.21;;;21.04;33.74
10718;BME280;13513;42.700;23.124;2023-04-02T11:02:31;92140.70;;;20.95;33.97
10718;BME280;13513;42.700;23.124;2023-04-02T11:05:04;92145.98;;;20.97;33.10
10718;BME280;13513;42.700;23.124;2023-04-02T11:07:36;92146.88;;;21.22;31.91
10718;BME280;13513;42.700;23.124;2023-04-02T11:10:06;92144.08;;;21.18;32.23
10718;BME280;13513;42.700;23.124;2023-04-02T11:12:47;92145.32;;;21.21;32.84
10718;BME280;13513;42.700;23.124;2023-04-02T11:15:15;92144.48;;;21.14;32.67
10718;BME280;13513;42.700;23.124;2023-04-02T11:17:48;92138.47;;;20.82;33.16
10718;BME280;13513;42.700;23.124;2023-04-02T11:23:17;92137.19;;;20.74;34.24
10718;BME280;13513;42.700;23.124;2023-04-02T11:25:48;92136.27;;;20.84;33.28
10718;BME280;13513;42.700;23.124;2023-04-02T11:28:30;92138.15;;;20.84;31.98
10718;BME280;13513;42.700;23.124;2023-04-02T11:31:03;92132.81;;;20.69;36.61
10718;BME280;13513;42.700;23.124;2023-04-02T11:33:41;92133.70;;;20.88;34.22
10718;BME280;13513;42.700;23.124;2023-04-02T11:42:24;92126.19;;;21.28;31.64
10718;BME280;13513;42.700;23.124;2023-04-02T11:44:55;92122.92;;;21.23;31.87
10718;BME280;13513;42.700;23.124;2023-04-02T11:47:27;92119.69;;;21.23;32.97
10718;BME280;13513;42.700;23.124;2023-04-02T11:50:02;92115.37;;;21.43;32.79
10718;BME280;13513;42.700;23.124;2023-04-02T11:52:37;92116.49;;;21.42;33.13
10718;BME280;13513;42.700;23.124;2023-04-02T11:55:18;92124.95;;;21.26;32.29
10718;BME280;13513;42.700;23.124;2023-04-02T12:09:18;92125.63;;;20.18;34.03
10718;BME280;13513;42.700;23.124;2023-04-02T12:11:54;92128.11;;;19.85;33.77
10718;BME280;13513;42.700;23.124;2023-04-02T12:17:24;92114.62;;;19.33;34.67
10718;BME280;13513;42.700;23.124;2023-04-02T12:20:02;92116.80;;;19.71;35.07
10718;BME280;13513;42.700;23.124;2023-04-02T12:22:30;92118.55;;;19.67;34.10
10718;BME280;13513;42.700;23.124;2023-04-02T12:28:15;92108.58;;;19.99;32.79
10718;BME280;13513;42.700;23.124;2023-04-02T12:30:47;92105.75;;;20.54;35.30
10718;BME280;13513;42.700;23.124;2023-04-02T12:33:30;92109.56;;;20.73;32.84
10718;BME280;13513;42.700;23.124;2023-04-02T12:36:03;92108.91;;;20.97;31.97
10718;BME280;13513;42.700;23.124;2023-04-02T12:38:48;92104.39;;;21.09;33.93
10718;BME280;13513;42.700;23.124;2023-04-02T12:41:24;92100.58;;;21.37;31.95
10718;BME280;13513;42.700;23.124;2023-04-02T12:44:03;92100.86;;;21.62;32.28
10718;BME280;13513;42.700;23.124;2023-04-02T12:46:36;92095.09;;;21.72;32.05
10718;BME280;13513;42.700;23.124;2023-04-02T12:52:17;92103.98;;;21.52;30.18
10718;BME280;13513;42.700;23.124;2023-04-02T12:54:48;92106.47;;;21.24;30.60
10718;BME280;13513;42.700;23.124;2023-04-02T12:57:33;92105.37;;;20.84;31.35
10718;BME280;13513;42.700;23.124;2023-04-02T12:59:57;92097.95;;;20.96;30.91
10718;BME280;13513;42.700;23.124;2023-04-02T13:02:42;92097.41;;;21.61;30.77
10718;BME280;13513;42.700;23.124;2023-04-02T13:05:04;92096.58;;;22.05;28.01
10718;BME280;13513;42.700;23.124;2023-04-02T13:07:35;92104.22;;;21.20;28.32
10718;BME280;13513;42.700;23.124;2023-04-02T13:10:24;92098.48;;;19.82;30.51
10718;BME280;13513;42.700;23.124;2023-04-02T13:12:41;92099.55;;;18.69;31.28
10718;BME280;13513;42.700;23.124;2023-04-02T13:15:22;92105.44;;;18.43;32.91
10718;BME280;13513;42.700;23.124;2023-04-02T13:21:05;92090.27;;;21.33;29.18
10718;BME280;13513;42.700;23.124;2023-04-02T13:23:37;92085.95;;;22.96;28.27
10718;BME280;13513;42.700;23.124;2023-04-02T13:26:17;92083.42;;;22.76;28.28
10718;BME280;13513;42.700;23.124;2023-04-02T13:31:57;92082.33;;;22.41;26.11
10718;BME280;13513;42.700;23.124;2023-04-02T13:34:28;92091.23;;;21.61;27.13
10718;BME280;13513;42.700;23.124;2023-04-02T13:37:00;92086.30;;;20.92;29.62
10718;BME280;13513;42.700;23.124;2023-04-02T13:39:33;92083.98;;;20.12;30.35
10718;BME280;13513;42.700;23.124;2023-04-02T13:42:09;92081.75;;;19.61;31.27
10718;BME280;13513;42.700;23.124;2023-04-02T13:44:39;92082.84;;;19.69;32.48
10718;BME280;13513;42.700;23.124;2023-04-02T13:47:15;92081.80;;;19.53;31.82
10718;BME280;13513;42.700;23.124;2023-04-02T13:49:46;92081.23;;;19.22;32.33
10718;BME280;13513;42.700;23.124;2023-04-02T13:52:17;92082.45;;;18.93;32.12
10718;BME280;13513;42.700;23.124;2023-04-02T13:54:53;92083.98;;;18.62;32.91
10718;BME280;13513;42.700;23.124;2023-04-02T13:57:23;92084.52;;;18.62;33.60
10718;BME280;13513;42.700;23.124;2023-04-02T13:59:55;92081.20;;;18.56;34.53
10718;BME280;13513;42.700;23.124;2023-04-02T14:02:26;92085.80;;;19.13;33.21
10718;BME280;13513;42.700;23.124;2023-04-02T14:10:39;92073.64;;;20.51;30.51
10718;BME280;13513;42.700;23.124;2023-04-02T14:16:54;92060.64;;;21.09;31.20
10718;BME280;13513;42.700;23.124;2023-04-02T14:24:19;92059.66;;;23.70;26.43
10718;BME280;13513;42.700;23.124;2023-04-02T14:32:31;92061.77;;;23.06;26.49
10718;BME280;13513;42.700;23.124;2023-04-02T14:43:02;92064.95;;;19.04;30.74
10718;BME280;13513;42.700;23.124;2023-04-02T14:48:23;92070.12;;;18.15;34.42
10718;BME280;13513;42.700;23.124;2023-04-02T14:50:55;92073.20;;;17.83;34.09
10718;BME280;13513;42.700;23.124;2023-04-02T14:53:31;92065.56;;;17.51;34.11
10718;BME280;13513;42.700;23.124;2023-04-02T14:56:03;92076.22;;;17.21;34.65
10718;BME280;13513;42.700;23.124;2023-04-02T14:58:38;92083.74;;;16.55;35.23
10718;BME280;13513;42.700;23.124;2023-04-02T15:01:25;92077.92;;;16.40;36.12
10718;BME280;13513;42.700;23.124;2023-04-02T15:04:05;92079.19;;;15.95;37.13
10718;BME280;13513;42.700;23.124;2023-04-02T15:06:46;92089.52;;;15.72;38.15
10718;BME280;13513;42.700;23.124;2023-04-02T15:09:36;92089.19;;;15.49;38.33
10718;BME280;13513;42.700;23.124;2023-04-02T15:12:20;92091.55;;;15.37;39.34
10718;BME280;13513;42.700;23.124;2023-04-02T15:15:06;92093.48;;;15.32;37.65
10718;BME280;13513;42.700;23.124;2023-04-02T15:17:30;92095.27;;;15.23;38.77
10718;BME280;13513;42.700;23.124;2023-04-02T15:20:11;92098.11;;;15.26;39.18
10718;BME280;13513;42.700;23.124;2023-04-02T15:23:08;92098.81;;;15.32;38.90
10718;BME280;13513;42.700;23.124;2023-04-02T15:25:46;92100.53;;;15.25;39.11
10718;BME280;13513;42.700;23.124;2023-04-02T15:30:59;92108.13;;;15.02;39.90
10718;BME280;13513;42.700;23.124;2023-04-02T15:33:52;92109.28;;;14.96;39.89
10718;BME280;13513;42.700;23.124;2023-04-02T15:39:08;92101.55;;;14.97;39.46
10718;BME280;13513;42.700;23.124;2023-04-02T15:44:12;92105.50;;;14.84;39.34
10718;BME280;13513;42.700;23.124;2023-04-02T15:49:56;92105.40;;;14.75;39.84
10718;BME280;13513;42.700;23.124;2023-04-02T15:52:40;92105.80;;;14.66;39.61
10718;BME280;13513;42.700;23.124;2023-04-02T15:55:21;92111.16;;;14.64;39.23
10718;BME280;13513;42.700;23.124;2023-04-02T15:58:20;92109.11;;;14.58;39.29
10718;BME280;13513;42.700;23.124;2023-04-02T16:03:57;92112.80;;;14.44;39.85
10718;BME280;13513;42.700;23.124;2023-04-02T16:09:26;92119.08;;;14.13;39.49
10718;BME280;13513;42.700;23.124;2023-04-02T16:12:20;92117.03;;;13.87;40.34
10718;BME280;13513;42.700;23.124;2023-04-02T16:14:31;92120.84;;;13.81;41.09
10718;BME280;13513;42.700;23.124;2023-04-02T16:17:09;92120.92;;;13.73;41.39
10718;BME280;13513;42.700;23.124;2023-04-02T16:19:44;92119.63;;;13.71;42.16
10718;BME280;13513;42.700;23.124;2023-04-02T16:22:27;92123.12;;;13.45;42.16